Time;durP1;ratioP1;P1;durP2;ratioP2;P2;SDS_P1;SDS_P2;PMS_P1;PMS_P2;Temp;Humidity;BMP_temperature;BMP_pressure;BME280_temperature;BME280_humidity;BME280_pressure;Samples;Min_cycle;Max_cycle;Signal;HPM_P1;HPM_P2
2022/07/19 00:00:13;;;;;;;;;;;;;;;29.20;46.27;99295.50;5053547;28;19956;-50
2022/07/19 00:02:39;;;;;;;;;;;;;;;29.04;46.65;99295.44;5054534;28;19916;-48
2022/07/19 00:05:05;;;;;;;;;;;;;;;29.33;46.39;99292.38;5053557;28;20281;-49
2022/07/19 00:07:30;;;;;;;;;;;;;;;29.23;46.60;99294.34;5054176;28;19922;-50
2022/07/19 00:09:55;;;;;;;;;;;;;;;29.23;47.61;99294.34;5053200;28;19920;-49
2022/07/19 00:12:21;;;;;;;;;;;;;;;29.02;47.26;99286.78;5053828;28;19912;-51
2022/07/19 00:14:46;;;;;;;;;;;;;;;29.16;47.45;99278.25;5053848;28;19924;-51
2022/07/19 00:17:11;;;;;;;;;;;;;;;29.14;45.74;99280.22;5053267;28;20425;-49
2022/07/19 00:19:36;;;;;;;;;;;;;;;29.59;45.71;99279.81;5052654;28;19916;-50
2022/07/19 00:22:02;;;;;;;;;;;;;;;29.34;44.66;99275.47;5053144;28;20260;-50
2022/07/19 00:24:27;;;;;;;;;;;;;;;29.49;44.78;99268.53;5053590;28;19916;-49
2022/07/19 00:26:52;;;;;;;;;;;;;;;29.60;44.37;99270.00;5052570;28;19916;-50
2022/07/19 00:29:17;;;;;;;;;;;;;;;29.24;43.95;99277.41;5053190;28;19912;-49
2022/07/19 00:31:42;;;;;;;;;;;;;;;29.54;44.25;99266.22;5053240;28;19917;-51
2022/07/19 00:34:08;;;;;;;;;;;;;;;29.42;44.24;99261.38;5053221;28;19974;-50
2022/07/19 00:36:33;;;;;;;;;;;;;;;29.60;43.64;99270.88;5051690;28;20371;-50
2022/07/19 00:38:58;;;;;;;;;;;;;;;29.62;42.61;99270.69;5052522;28;20836;-52
2022/07/19 00:41:23;;;;;;;;;;;;;;;29.39;43.73;99275.81;5053124;28;20301;-49
2022/07/19 00:43:50;;;;;;;;;;;;;;;29.57;43.70;99273.84;5052348;28;19916;-49
2022/07/19 00:46:17;;;;;;;;;;;;;;;29.57;43.41;99271.19;5056120;28;19913;-47
2022/07/19 00:48:42;;;;;;;;;;;;;;;29.56;42.92;99271.34;5057195;28;20003;-52
2022/07/19 00:51:08;;;;;;;;;;;;;;;29.59;42.89;99269.19;5056183;28;19920;-49
2022/07/19 00:53:34;;;;;;;;;;;;;;;29.32;43.65;99274.78;5057002;28;19916;-50
2022/07/19 00:55:59;;;;;;;;;;;;;;;29.11;45.39;99270.78;5055814;28;19917;-50
2022/07/19 00:58:25;;;;;;;;;;;;;;;29.22;44.79;99271.44;5055773;28;19971;-52
2022/07/19 01:00:50;;;;;;;;;;;;;;;29.39;44.53;99273.16;5055751;28;19951;-52
2022/07/19 01:03:15;;;;;;;;;;;;;;;29.43;44.38;99273.66;5055770;28;20209;-48
2022/07/19 01:05:40;;;;;;;;;;;;;;;29.22;43.96;99276.75;5056411;28;20259;-48
2022/07/19 01:08:05;;;;;;;;;;;;;;;29.09;45.04;99277.22;5057066;28;19984;-50
2022/07/19 01:10:31;;;;;;;;;;;;;;;29.03;44.69;99273.34;5055647;28;19962;-48
2022/07/19 01:12:56;;;;;;;;;;;;;;;29.25;44.36;99271.13;5056415;28;19920;-52
2022/07/19 01:15:22;;;;;;;;;;;;;;;28.71;44.27;99269.59;5056625;28;20274;-52
2022/07/19 01:17:48;;;;;;;;;;;;;;;29.07;44.70;99273.88;5055105;28;20393;-51
2022/07/19 01:20:14;;;;;;;;;;;;;;;28.92;45.09;99268.34;5055915;28;19921;-49
2022/07/19 01:22:40;;;;;;;;;;;;;;;28.85;45.73;99267.34;5055647;28;19913;-51
2022/07/19 01:25:05;;;;;;;;;;;;;;;28.52;47.22;99269.84;5044368;28;19916;-51
2022/07/19 01:27:30;;;;;;;;;;;;;;;28.75;46.78;99265.63;5056185;28;20415;-50
2022/07/19 01:29:56;;;;;;;;;;;;;;;28.81;46.47;99273.94;5056067;28;19994;-52
2022/07/19 01:32:21;;;;;;;;;;;;;;;28.71;46.42;99264.28;5056541;28;19920;-50
2022/07/19 01:34:46;;;;;;;;;;;;;;;28.60;45.53;99264.56;5055652;28;19932;-48
2022/07/19 01:37:11;;;;;;;;;;;;;;;28.70;45.79;99267.94;5055674;28;19924;-51
2022/07/19 01:39:36;;;;;;;;;;;;;;;28.49;45.75;99270.16;5054815;28;19916;-49
2022/07/19 01:42:02;;;;;;;;;;;;;;;28.57;46.21;99267.53;5056297;28;19927;-48
2022/07/19 01:44:27;;;;;;;;;;;;;;;28.62;46.27;99267.91;5055236;28;19917;-50
2022/07/19 01:46:52;;;;;;;;;;;;;;;28.34;46.99;99270.69;5056139;28;19962;-49
2022/07/19 01:49:17;;;;;;;;;;;;;;;28.21;46.99;99272.94;5055150;28;19924;-49
2022/07/19 01:51:43;;;;;;;;;;;;;;;27.98;47.00;99269.97;5055637;28;19936;-48
2022/07/19 01:54:08;;;;;;;;;;;;;;;28.00;47.48;99269.81;5055509;28;19920;-50
2022/07/19 01:56:33;;;;;;;;;;;;;;;28.13;46.28;99264.94;5055890;28;19916;-48
2022/07/19 01:58:58;;;;;;;;;;;;;;;28.22;45.89;99268.50;5054721;28;19947;-47
2022/07/19 02:01:23;;;;;;;;;;;;;;;27.76;46.87;99271.25;5056004;28;20378;-48
2022/07/19 02:03:50;;;;;;;;;;;;;;;27.85;47.76;99274.81;5054093;28;20198;-48
2022/07/19 02:06:16;;;;;;;;;;;;;;;27.75;47.42;99264.28;5055639;28;20021;-49
2022/07/19 02:08:41;;;;;;;;;;;;;;;27.87;47.02;99268.41;5055581;28;20376;-49
2022/07/19 02:13:51;;;;;;;;;;;;;;;27.64;47.75;99264.53;5053700;28;19970;-48
2022/07/19 02:16:16;;;;;;;;;;;;;;;28.00;46.55;99267.16;5055316;28;20519;-51
2022/07/19 02:18:41;;;;;;;;;;;;;;;27.91;46.11;99266.28;5055049;28;19939;-50
2022/07/19 02:21:06;;;;;;;;;;;;;;;27.69;45.92;99264.94;5054389;28;19955;-51
2022/07/19 02:23:31;;;;;;;;;;;;;;;27.86;46.63;99264.09;5054862;28;19948;-47
2022/07/19 02:25:57;;;;;;;;;;;;;;;27.99;46.77;99261.06;5054497;28;19964;-48
2022/07/19 02:28:22;;;;;;;;;;;;;;;27.95;46.98;99257.88;5054763;28;19916;-49
2022/07/19 02:30:47;;;;;;;;;;;;;;;28.02;46.15;99254.63;5054778;28;20009;-50
2022/07/19 02:33:12;;;;;;;;;;;;;;;27.85;46.20;99251.84;5054949;28;19959;-51
2022/07/19 02:35:37;;;;;;;;;;;;;;;27.87;46.09;99255.19;5055260;28;20491;-48
2022/07/19 02:38:03;;;;;;;;;;;;;;;27.76;46.47;99252.75;5054710;28;20738;-51
2022/07/19 02:40:28;;;;;;;;;;;;;;;27.87;46.60;99249.88;5054646;28;20429;-49
2022/07/19 02:42:53;;;;;;;;;;;;;;;27.86;46.89;99248.22;5054926;28;20859;-49
2022/07/19 02:45:18;;;;;;;;;;;;;;;27.79;46.62;99252.41;5054661;28;20445;-50
2022/07/19 02:47:44;;;;;;;;;;;;;;;27.75;46.52;99259.00;5054344;28;19976;-50
2022/07/19 02:50:09;;;;;;;;;;;;;;;27.61;47.02;99254.25;5054521;28;20440;-50
2022/07/19 02:52:34;;;;;;;;;;;;;;;27.43;47.95;99257.72;5054247;28;20711;-50
2022/07/19 02:55:00;;;;;;;;;;;;;;;27.08;48.36;99256.69;5054986;28;20044;-51
2022/07/19 02:57:25;;;;;;;;;;;;;;;27.27;48.48;99247.00;5054346;28;20146;-52
2022/07/19 02:59:50;;;;;;;;;;;;;;;27.36;48.08;99251.38;5054566;28;19925;-51
2022/07/19 03:02:15;;;;;;;;;;;;;;;27.28;48.82;99248.69;5054116;28;19927;-51
2022/07/19 03:04:40;;;;;;;;;;;;;;;27.25;48.67;99254.25;5054595;28;19916;-51
2022/07/19 03:07:06;;;;;;;;;;;;;;;27.07;49.20;99251.53;5054080;28;19927;-51
2022/07/19 03:09:31;;;;;;;;;;;;;;;27.36;48.40;99240.81;5053859;28;19923;-48
2022/07/19 03:11:56;;;;;;;;;;;;;;;27.19;48.25;99241.59;5054321;28;20285;-51
2022/07/19 03:14:21;;;;;;;;;;;;;;;27.21;48.82;99250.22;5054399;28;20193;-48
2022/07/19 03:16:47;;;;;;;;;;;;;;;27.41;48.41;99243.81;5054348;28;20010;-49
2022/07/19 03:19:12;;;;;;;;;;;;;;;27.00;48.21;99248.66;5054005;28;20541;-50
2022/07/19 03:21:37;;;;;;;;;;;;;;;27.04;49.50;99250.03;5054243;28;20003;-50
2022/07/19 03:24:03;;;;;;;;;;;;;;;26.92;49.23;99243.28;5054213;28;19917;-49
2022/07/19 03:26:28;;;;;;;;;;;;;;;27.10;48.96;99241.50;5054288;28;19986;-48
2022/07/19 03:28:53;;;;;;;;;;;;;;;26.80;50.05;99247.97;5053878;28;19923;-48
2022/07/19 03:31:18;;;;;;;;;;;;;;;26.51;51.77;99242.75;5053928;28;19939;-49
2022/07/19 03:33:43;;;;;;;;;;;;;;;26.85;50.42;99248.34;5053206;28;19916;-50
2022/07/19 03:36:09;;;;;;;;;;;;;;;26.91;49.51;99246.91;5054134;28;19924;-50
2022/07/19 03:38:34;;;;;;;;;;;;;;;26.91;50.31;99246.91;5054160;28;19923;-49
2022/07/19 03:40:59;;;;;;;;;;;;;;;26.68;50.95;99249.94;5053410;28;19924;-50
2022/07/19 03:43:24;;;;;;;;;;;;;;;26.68;50.83;99244.66;5053925;28;19923;-50
2022/07/19 03:45:50;;;;;;;;;;;;;;;26.33;52.02;99247.16;5053818;28;19916;-48
2022/07/19 03:48:17;;;;;;;;;;;;;;;26.63;51.45;99246.91;5053412;28;19917;-49
2022/07/19 03:50:42;;;;;;;;;;;;;;;26.80;50.15;99249.75;5053089;28;19916;-48
2022/07/19 03:53:08;;;;;;;;;;;;;;;26.51;50.50;99250.69;5053873;28;19928;-48
2022/07/19 03:55:33;;;;;;;;;;;;;;;26.87;50.27;99245.56;5051864;28;20385;-49
2022/07/19 03:57:58;;;;;;;;;;;;;;;27.30;49.46;99246.69;5054120;28;19917;-48
2022/07/19 04:00:23;;;;;;;;;;;;;;;27.03;48.64;99253.66;5052527;28;19920;-52
2022/07/19 04:02:49;;;;;;;;;;;;;;;26.96;49.65;99249.97;5053684;28;20203;-52
2022/07/19 04:05:14;;;;;;;;;;;;;;;27.03;49.93;99251.03;5052860;28;19960;-47
2022/07/19 04:07:39;;;;;;;;;;;;;;;26.89;49.74;99254.16;5053705;28;20875;-51
2022/07/19 04:10:05;;;;;;;;;;;;;;;26.97;50.20;99246.31;5052540;28;19916;-50
2022/07/19 04:12:30;;;;;;;;;;;;;;;26.95;50.05;99255.38;5054195;28;19923;-51
2022/07/19 04:14:55;;;;;;;;;;;;;;;26.89;49.58;99248.84;5053526;28;19920;-52
2022/07/19 04:17:21;;;;;;;;;;;;;;;26.98;49.85;99252.44;5053190;28;20629;-52
2022/07/19 04:19:46;;;;;;;;;;;;;;;27.07;49.67;99243.59;5050388;28;19952;-50
2022/07/19 04:22:11;;;;;;;;;;;;;;;27.18;49.18;99253.97;5053191;28;19913;-51
2022/07/19 04:24:36;;;;;;;;;;;;;;;27.25;49.05;99254.25;5052800;28;19973;-50
2022/07/19 04:27:02;;;;;;;;;;;;;;;27.23;50.11;99248.28;5053391;28;19921;-51
2022/07/19 04:29:27;;;;;;;;;;;;;;;27.24;49.44;99252.59;5052474;28;19917;-51
2022/07/19 04:31:52;;;;;;;;;;;;;;;27.20;49.47;99253.84;5052840;28;20422;-51
2022/07/19 04:34:17;;;;;;;;;;;;;;;27.39;49.34;99253.72;5052538;28;20449;-50
2022/07/19 04:36:43;;;;;;;;;;;;;;;27.69;48.70;99246.41;5053209;28;20398;-49
2022/07/19 04:39:08;;;;;;;;;;;;;;;27.94;48.13;99247.47;5052594;28;20682;-50
2022/07/19 04:41:33;;;;;;;;;;;;;;;27.97;46.42;99243.66;5052987;28;19924;-51
2022/07/19 04:43:58;;;;;;;;;;;;;;;27.68;46.98;99250.84;5052525;28;19923;-49
2022/07/19 04:46:23;;;;;;;;;;;;;;;27.82;48.09;99252.09;5053579;28;19923;-49
2022/07/19 04:48:49;;;;;;;;;;;;;;;28.10;47.47;99244.91;5052044;28;19916;-50
2022/07/19 04:51:14;;;;;;;;;;;;;;;28.15;46.78;99250.56;5052604;28;19920;-50
2022/07/19 04:53:39;;;;;;;;;;;;;;;28.14;47.17;99250.72;5052810;28;19962;-51
2022/07/19 04:56:04;;;;;;;;;;;;;;;28.13;46.50;99254.34;5053384;28;19932;-50
2022/07/19 04:58:30;;;;;;;;;;;;;;;28.27;45.58;99245.84;5052563;28;20011;-52
2022/07/19 05:00:55;;;;;;;;;;;;;;;28.47;45.73;99256.25;5052528;28;20377;-50
2022/07/19 05:03:20;;;;;;;;;;;;;;;28.66;45.64;99245.38;5052234;28;20903;-51
2022/07/19 05:05:45;;;;;;;;;;;;;;;28.83;45.62;99251.59;5051601;28;20753;-51
2022/07/19 05:08:10;;;;;;;;;;;;;;;28.85;44.86;99256.72;5052730;28;20465;-47
2022/07/19 05:10:36;;;;;;;;;;;;;;;28.98;43.93;99252.63;5053074;28;20282;-48
2022/07/19 05:13:01;;;;;;;;;;;;;;;29.02;44.17;99245.19;5052916;28;19916;-48
2022/07/19 05:15:26;;;;;;;;;;;;;;;28.95;43.61;99250.31;5052021;28;19971;-52
2022/07/19 05:17:51;;;;;;;;;;;;;;;29.37;43.98;99245.94;5053038;28;19916;-51
2022/07/19 05:20:17;;;;;;;;;;;;;;;29.66;42.55;99245.47;5051591;28;19916;-48
2022/07/19 05:22:42;;;;;;;;;;;;;;;29.53;42.97;99245.97;5054921;28;19916;-47
2022/07/19 05:25:09;;;;;;;;;;;;;;;29.70;42.36;99238.88;5053724;28;20023;-49
2022/07/19 05:27:34;;;;;;;;;;;;;;;29.71;42.72;99239.69;5052601;28;19924;-52
2022/07/19 05:29:59;;;;;;;;;;;;;;;29.91;42.51;99234.88;5052297;28;19967;-50
2022/07/19 05:32:25;;;;;;;;;;;;;;;29.78;42.28;99238.03;5056230;28;19917;-49
2022/07/19 05:34:50;;;;;;;;;;;;;;;29.90;43.72;99231.41;5056353;28;19931;-51
2022/07/19 05:37:15;;;;;;;;;;;;;;;30.17;42.07;99229.34;5056289;28;19920;-50
2022/07/19 05:39:40;;;;;;;;;;;;;;;30.78;41.86;99233.16;5055468;28;20503;-52
2022/07/19 05:42:06;;;;;;;;;;;;;;;30.76;40.49;99229.00;5056244;28;20638;-51
2022/07/19 05:44:31;;;;;;;;;;;;;;;30.95;40.88;99227.78;5056205;28;20371;-48
2022/07/19 05:46:56;;;;;;;;;;;;;;;31.12;40.86;99226.69;5056042;28;20738;-50
2022/07/19 05:49:21;;;;;;;;;;;;;;;31.26;39.98;99225.09;5055653;28;19927;-48
2022/07/19 05:51:47;;;;;;;;;;;;;;;31.31;39.85;99228.03;5056058;28;19916;-51
2022/07/19 05:54:12;;;;;;;;;;;;;;;31.43;38.72;99226.66;5055009;28;19928;-50
2022/07/19 05:56:37;;;;;;;;;;;;;;;31.24;39.92;99227.09;5055694;28;20052;-51
2022/07/19 05:59:02;;;;;;;;;;;;;;;31.73;40.35;99233.94;5055906;28;19920;-49
2022/07/19 06:01:28;;;;;;;;;;;;;;;31.57;40.02;99237.56;5055917;28;20350;-48
2022/07/19 06:03:54;;;;;;;;;;;;;;;31.90;38.56;99222.09;5037923;28;19924;-49
2022/07/19 06:06:19;;;;;;;;;;;;;;;32.03;38.93;99226.84;5055383;28;19920;-48
2022/07/19 06:08:45;;;;;;;;;;;;;;;32.00;38.67;99228.03;5055573;28;19912;-49
2022/07/19 06:11:10;;;;;;;;;;;;;;;31.96;38.72;99237.38;5055514;28;19919;-49
2022/07/19 06:13:36;;;;;;;;;;;;;;;32.57;39.18;99233.75;5055712;28;19938;-48
2022/07/19 06:16:01;;;;;;;;;;;;;;;32.71;37.39;99230.25;5056310;28;19921;-49
2022/07/19 06:18:29;;;;;;;;;;;;;;;32.78;36.78;99227.66;5055513;28;20031;-48
2022/07/19 06:20:55;;;;;;;;;;;;;;;32.69;36.79;99226.94;5054847;28;20429;-50
2022/07/19 06:23:20;;;;;;;;;;;;;;;32.84;37.82;99233.06;5056051;28;19937;-49
2022/07/19 06:25:45;;;;;;;;;;;;;;;33.10;37.69;99237.09;5055472;28;20259;-50
2022/07/19 06:28:11;;;;;;;;;;;;;;;33.39;36.05;99235.31;5055911;28;20286;-51
2022/07/19 06:30:36;;;;;;;;;;;;;;;33.45;36.37;99235.38;5055146;28;19924;-50
2022/07/19 06:33:01;;;;;;;;;;;;;;;33.11;36.67;99231.53;5056099;28;20012;-49
2022/07/19 06:35:26;;;;;;;;;;;;;;;32.85;36.38;99232.06;5055299;28;20305;-51
2022/07/19 06:37:52;;;;;;;;;;;;;;;33.27;36.43;99230.47;5055312;28;20034;-52
2022/07/19 06:40:17;;;;;;;;;;;;;;;33.81;34.83;99229.13;5054928;28;19940;-52
2022/07/19 06:42:42;;;;;;;;;;;;;;;34.22;35.47;99228.41;5054307;28;19924;-52
2022/07/19 06:45:08;;;;;;;;;;;;;;;34.19;34.74;99231.50;5055537;28;19916;-50
2022/07/19 06:47:33;;;;;;;;;;;;;;;33.87;35.05;99235.53;5055356;28;19960;-50
2022/07/19 06:49:58;;;;;;;;;;;;;;;33.81;35.56;99234.47;5054827;28;19959;-52
2022/07/19 06:52:23;;;;;;;;;;;;;;;34.08;34.70;99240.03;5054221;28;19920;-52
2022/07/19 06:54:49;;;;;;;;;;;;;;;34.70;34.75;99236.50;5054944;28;19964;-51
2022/07/19 06:57:14;;;;;;;;;;;;;;;34.91;33.55;99232.03;5054679;28;19923;-51
2022/07/19 06:59:39;;;;;;;;;;;;;;;35.14;33.34;99234.41;5054845;28;19931;-52
2022/07/19 07:02:04;;;;;;;;;;;;;;;35.10;32.60;99233.09;5054552;28;19917;-48
2022/07/19 07:04:30;;;;;;;;;;;;;;;35.32;32.88;99234.63;5054664;28;19916;-53
2022/07/19 07:06:56;;;;;;;;;;;;;;;35.20;32.44;99236.28;5053902;28;19921;-50
2022/07/19 07:09:21;;;;;;;;;;;;;;;34.91;32.37;99238.22;5054419;28;19916;-51
2022/07/19 07:11:46;;;;;;;;;;;;;;;34.90;32.43;99235.75;5054783;28;19920;-50
2022/07/19 07:14:11;;;;;;;;;;;;;;;34.22;32.74;99239.09;5054105;28;19920;-52
2022/07/19 07:16:36;;;;;;;;;;;;;;;35.40;32.93;99238.97;5054421;28;19930;-48
2022/07/19 07:19:02;;;;;;;;;;;;;;;36.12;31.68;99237.34;5053916;28;19916;-51
2022/07/19 07:21:27;;;;;;;;;;;;;;;35.74;32.50;99240.69;5054387;28;20012;-53
2022/07/19 07:23:52;;;;;;;;;;;;;;;36.81;31.12;99243.97;5054086;28;19959;-53
2022/07/19 07:26:17;;;;;;;;;;;;;;;36.87;31.10;99244.97;5054699;28;19991;-51
2022/07/19 07:28:43;;;;;;;;;;;;;;;36.84;30.69;99242.72;5054225;28;19923;-51
2022/07/19 07:31:08;;;;;;;;;;;;;;;37.31;31.15;99242.47;5053557;28;19921;-52
2022/07/19 07:33:33;;;;;;;;;;;;;;;36.87;30.62;99241.47;5053640;28;19916;-52
2022/07/19 07:35:58;;;;;;;;;;;;;;;37.72;31.06;99239.28;5054520;28;19920;-52
2022/07/19 07:38:24;;;;;;;;;;;;;;;36.33;30.52;99243.50;5053618;28;19923;-52
2022/07/19 07:40:49;;;;;;;;;;;;;;;35.44;31.47;99239.38;5053696;28;20762;-53
2022/07/19 07:43:14;;;;;;;;;;;;;;;36.68;30.50;99248.56;5054076;28;20360;-53
2022/07/19 07:45:39;;;;;;;;;;;;;;;35.90;30.54;99242.09;5053619;28;19916;-52
2022/07/19 07:48:05;;;;;;;;;;;;;;;36.09;31.35;99244.97;5053916;28;20319;-51
2022/07/19 07:50:30;;;;;;;;;;;;;;;36.02;30.99;99244.97;5052883;28;20323;-54
2022/07/19 07:52:55;;;;;;;;;;;;;;;35.88;30.90;99249.53;5053051;28;19924;-52
2022/07/19 07:55:20;;;;;;;;;;;;;;;35.94;30.94;99242.50;5054183;28;19921;-53
2022/07/19 07:57:46;;;;;;;;;;;;;;;37.00;29.93;99236.03;5053705;28;19966;-52
2022/07/19 08:00:13;;;;;;;;;;;;;;;37.39;29.25;99240.34;5053131;28;19927;-54
2022/07/19 08:02:39;;;;;;;;;;;;;;;35.93;30.20;99243.53;5053835;28;19916;-53
2022/07/19 08:05:05;;;;;;;;;;;;;;;37.32;28.59;99233.38;5053576;28;20650;-54
2022/07/19 08:07:30;;;;;;;;;;;;;;;36.58;29.54;99233.69;5053563;28;19923;-52
2022/07/19 08:09:55;;;;;;;;;;;;;;;37.51;29.87;99237.78;5053025;28;19916;-52
2022/07/19 08:12:22;;;;;;;;;;;;;;;38.13;28.22;99231.69;5053405;28;19927;-53
2022/07/19 08:14:47;;;;;;;;;;;;;;;37.37;27.83;99237.06;5053372;28;20015;-53
2022/07/19 08:17:12;;;;;;;;;;;;;;;38.38;27.52;99226.25;5053582;28;19916;-52
2022/07/19 08:19:38;;;;;;;;;;;;;;;38.32;27.09;99232.50;5052819;28;20285;-53
2022/07/19 08:22:03;;;;;;;;;;;;;;;37.61;27.30;99242.69;5052963;28;20078;-52
2022/07/19 08:24:28;;;;;;;;;;;;;;;37.39;27.25;99234.97;5053179;28;20667;-52
2022/07/19 08:26:55;;;;;;;;;;;;;;;38.45;26.34;99235.06;5053864;28;20317;-49
2022/07/19 08:29:20;;;;;;;;;;;;;;;40.42;25.56;99233.31;5052711;28;19916;-53
2022/07/19 08:31:45;;;;;;;;;;;;;;;38.67;26.63;99230.06;5053001;28;20011;-53
2022/07/19 08:34:11;;;;;;;;;;;;;;;38.86;26.24;99230.84;5051747;28;19927;-53
2022/07/19 08:36:36;;;;;;;;;;;;;;;39.78;25.48;99230.53;5053729;28;19923;-53
2022/07/19 08:39:02;;;;;;;;;;;;;;;41.18;24.42;99239.41;5052629;28;20022;-54
2022/07/19 08:41:27;;;;;;;;;;;;;;;39.82;24.81;99223.63;5052594;28;19967;-53
2022/07/19 08:43:52;;;;;;;;;;;;;;;40.17;25.04;99220.09;5051592;28;19923;-54
2022/07/19 08:46:19;;;;;;;;;;;;;;;40.77;24.14;99221.63;5053427;28;19916;-52
2022/07/19 08:48:44;;;;;;;;;;;;;;;41.05;24.22;99222.66;5053605;28;20468;-53
2022/07/19 08:51:09;;;;;;;;;;;;;;;40.51;24.51;99226.50;5051523;28;19916;-54
2022/07/19 08:53:38;;;;;;;;;;;;;;;40.02;24.74;99225.16;5052105;28;19916;-53
2022/07/19 08:57:56;;;;;;;;;;;;;;;41.22;24.48;99218.13;5053277;28;19920;-53
2022/07/19 08:58:48;;;;;;;;;;;;;;;40.14;23.47;99223.25;5051291;28;19920;-53
2022/07/19 09:01:13;;;;;;;;;;;;;;;41.70;22.15;99224.88;5052633;28;20915;-54
2022/07/19 09:03:58;;;;;;;;;;;;;;;40.83;23.89;99225.22;5052210;28;19975;-56
2022/07/19 09:06:28;;;;;;;;;;;;;;;41.43;23.55;99224.69;5055265;28;19924;-55
2022/07/19 09:08:54;;;;;;;;;;;;;;;42.29;23.18;99218.09;5054746;28;19916;-55
2022/07/19 09:11:31;;;;;;;;;;;;;;;41.36;23.51;99218.63;5056331;28;19950;-55
2022/07/19 09:13:56;;;;;;;;;;;;;;;41.76;21.74;99206.81;5055284;28;19920;-53
2022/07/19 09:16:22;;;;;;;;;;;;;;;41.41;22.97;99213.28;5055738;28;19966;-56
2022/07/19 09:18:47;;;;;;;;;;;;;;;41.06;23.86;99208.09;5056539;28;19952;-55
2022/07/19 09:21:12;;;;;;;;;;;;;;;39.34;25.36;99213.78;5055753;28;19920;-55
2022/07/19 09:23:38;;;;;;;;;;;;;;;39.82;24.68;99210.13;5056354;28;20963;-52
2022/07/19 09:26:04;;;;;;;;;;;;;;;40.42;24.31;99203.63;5054733;28;19969;-54
2022/07/19 09:28:31;;;;;;;;;;;;;;;41.93;23.50;99213.03;5056509;28;19927;-52
2022/07/19 09:30:57;;;;;;;;;;;;;;;41.30;23.62;99211.50;5054519;28;19912;-54
2022/07/19 09:33:23;;;;;;;;;;;;;;;41.24;22.40;99199.78;5056252;28;20010;-54
2022/07/19 09:35:49;;;;;;;;;;;;;;;41.14;23.14;99205.81;5056392;28;19920;-54
2022/07/19 09:38:17;;;;;;;;;;;;;;;42.68;22.01;99202.63;5055876;28;20034;-52
2022/07/19 09:40:42;;;;;;;;;;;;;;;43.82;22.53;99210.69;5055506;28;19913;-53
2022/07/19 09:43:08;;;;;;;;;;;;;;;42.48;22.22;99203.22;5056573;28;19916;-53
2022/07/19 09:45:33;;;;;;;;;;;;;;;43.43;22.17;99203.63;5055816;28;19917;-52
2022/07/19 09:48:00;;;;;;;;;;;;;;;43.23;21.21;99192.63;5056013;28;19916;-54
2022/07/19 09:50:25;;;;;;;;;;;;;;;43.15;21.34;99193.88;5055513;28;20569;-54
2022/07/19 09:52:51;;;;;;;;;;;;;;;44.09;21.46;99198.91;5055796;28;20003;-54
2022/07/19 09:55:16;;;;;;;;;;;;;;;42.95;21.64;99191.81;5056032;28;20720;-53
2022/07/19 09:57:42;;;;;;;;;;;;;;;44.07;21.65;99193.75;5055407;28;20768;-54
2022/07/19 10:00:08;;;;;;;;;;;;;;;43.53;21.86;99185.78;5055309;28;19924;-53
2022/07/19 10:02:34;;;;;;;;;;;;;;;44.21;20.41;99185.94;5056330;28;19963;-52
2022/07/19 10:05:00;;;;;;;;;;;;;;;45.03;22.26;99188.88;5056022;28;19927;-53
2022/07/19 10:07:25;;;;;;;;;;;;;;;43.19;22.22;99189.56;5054477;28;19921;-55
2022/07/19 10:09:50;;;;;;;;;;;;;;;40.30;23.06;99183.94;5054267;28;19925;-52
2022/07/19 10:12:15;;;;;;;;;;;;;;;41.65;22.46;99192.34;5056190;28;19974;-54
2022/07/19 10:14:40;;;;;;;;;;;;;;;42.10;21.57;99180.53;5055728;28;20667;-54
2022/07/19 10:17:10;;;;;;;;;;;;;;;43.60;20.47;99181.75;5052802;28;19916;-54
2022/07/19 10:19:38;;;;;;;;;;;;;;;44.02;21.14;99178.28;5055924;28;19917;-54
2022/07/19 10:22:03;;;;;;;;;;;;;;;42.09;21.32;99184.31;5055479;28;19916;-54
2022/07/19 10:24:45;;;;;;;;;;;;;;;44.37;20.34;99160.47;5054588;28;19923;-54
2022/07/19 10:27:11;;;;;;;;;;;;;;;45.38;21.43;99171.75;5054882;28;20045;-54
2022/07/19 10:29:36;;;;;;;;;;;;;;;45.67;21.47;99174.72;5054256;28;20571;-54
2022/07/19 10:32:20;;;;;;;;;;;;;;;45.83;21.06;99171.97;5053973;28;19986;-54
2022/07/19 10:34:46;;;;;;;;;;;;;;;45.11;19.37;99161.13;5053419;28;19920;-54
2022/07/19 10:37:11;;;;;;;;;;;;;;;45.19;20.61;99163.31;5055148;28;20297;-55
2022/07/19 10:39:38;;;;;;;;;;;;;;;44.15;22.32;99171.50;5053328;28;20439;-54
2022/07/19 10:42:06;;;;;;;;;;;;;;;43.21;21.49;99156.78;5054514;28;20018;-55
2022/07/19 10:44:32;;;;;;;;;;;;;;;42.33;22.52;99160.50;5055053;28;20042;-54
2022/07/19 10:46:57;;;;;;;;;;;;;;;41.53;22.74;99164.53;5054557;28;19927;-53
2022/07/19 10:49:41;;;;;;;;;;;;;;;44.12;21.46;99158.47;5054495;28;20022;-55
2022/07/19 10:52:25;;;;;;;;;;;;;;;43.91;19.92;99154.00;5053616;28;19954;-54
2022/07/19 10:55:09;;;;;;;;;;;;;;;45.56;20.42;99151.31;5055294;28;20238;-55
2022/07/19 10:57:35;;;;;;;;;;;;;;;46.03;19.33;99150.13;5055147;28;19970;-54
2022/07/19 11:00:00;;;;;;;;;;;;;;;43.03;21.10;99141.75;5054669;28;20047;-54
2022/07/19 11:02:25;;;;;;;;;;;;;;;45.09;20.29;99142.41;5054819;28;19959;-56
2022/07/19 11:04:51;;;;;;;;;;;;;;;45.05;19.75;99140.47;5054009;28;20499;-57
2022/07/19 11:07:21;;;;;;;;;;;;;;;46.69;19.46;99131.78;5054530;28;20829;-56
2022/07/19 11:09:46;;;;;;;;;;;;;;;47.41;19.28;99128.47;5053974;28;20006;-56
2022/07/19 11:12:21;;;;;;;;;;;;;;;43.91;20.19;99124.16;5053873;28;20281;-57
2022/07/19 11:14:46;;;;;;;;;;;;;;;46.41;19.48;99125.97;5054869;28;20301;-57
2022/07/19 11:17:12;;;;;;;;;;;;;;;46.19;19.04;99125.53;5054529;28;19920;-56
2022/07/19 11:19:37;;;;;;;;;;;;;;;46.44;20.81;99125.44;5053491;28;19927;-57
2022/07/19 11:22:02;;;;;;;;;;;;;;;47.19;20.18;99121.56;5052464;28;19916;-57
2022/07/19 11:24:27;;;;;;;;;;;;;;;47.12;18.47;99099.28;5055605;28;19917;-57
2022/07/19 11:26:53;;;;;;;;;;;;;;;45.75;20.33;99115.38;5054026;28;19946;-57
2022/07/19 11:29:18;;;;;;;;;;;;;;;44.64;23.18;99107.84;5052403;28;19916;-56
2022/07/19 11:31:47;;;;;;;;;;;;;;;44.15;21.80;99100.13;5054768;28;19923;-57
2022/07/19 11:34:13;;;;;;;;;;;;;;;44.58;18.95;99095.34;5052586;28;19966;-57
2022/07/19 11:36:38;;;;;;;;;;;;;;;45.23;20.63;99096.47;5054319;28;20579;-57
2022/07/19 11:39:03;;;;;;;;;;;;;;;45.56;20.34;99094.19;5052842;28;19920;-56
2022/07/19 11:41:29;;;;;;;;;;;;;;;46.33;18.80;99094.69;5054390;28;19916;-57
2022/07/19 11:43:58;;;;;;;;;;;;;;;47.93;20.28;99092.13;5054188;28;19921;-57
2022/07/19 11:46:29;;;;;;;;;;;;;;;45.87;20.69;99094.09;5054368;28;19954;-57
2022/07/19 11:48:55;;;;;;;;;;;;;;;43.20;23.16;99101.78;5052497;28;19920;-57
2022/07/19 11:51:21;;;;;;;;;;;;;;;43.92;20.87;99088.63;5053573;28;19993;-56
2022/07/19 11:53:49;;;;;;;;;;;;;;;43.89;21.16;99091.06;5053607;28;20328;-57
2022/07/19 11:56:18;;;;;;;;;;;;;;;44.55;20.41;99082.28;5053766;28;19931;-57
2022/07/19 11:58:43;;;;;;;;;;;;;;;46.83;19.01;99077.44;5052341;28;19920;-56
2022/07/19 12:01:08;;;;;;;;;;;;;;;47.92;19.25;99076.84;5051774;28;19979;-57
2022/07/19 12:03:33;;;;;;;;;;;;;;;46.32;19.04;99076.69;5053664;28;20101;-57
2022/07/19 12:06:03;;;;;;;;;;;;;;;47.53;20.37;99066.13;5053919;28;20041;-57
2022/07/19 12:08:33;;;;;;;;;;;;;;;49.53;19.56;99071.22;5054138;28;19927;-57
2022/07/19 12:10:58;;;;;;;;;;;;;;;45.66;19.47;99061.53;5052600;28;19923;-57
2022/07/19 12:13:30;;;;;;;;;;;;;;;47.97;19.39;99065.88;5053933;28;19916;-57
2022/07/19 12:15:56;;;;;;;;;;;;;;;48.75;18.62;99068.28;5053625;28;19920;-57
2022/07/19 12:18:23;;;;;;;;;;;;;;;48.90;18.65;99064.44;5053554;28;19927;-57
2022/07/19 12:21:07;;;;;;;;;;;;;;;48.22;17.68;99060.31;5052143;28;19951;-58
2022/07/19 12:23:32;;;;;;;;;;;;;;;45.86;19.77;99062.53;5054031;28;19924;-58
2022/07/19 12:26:04;;;;;;;;;;;;;;;46.64;19.56;99055.53;5054033;28;19917;-58
2022/07/19 12:28:29;;;;;;;;;;;;;;;46.82;19.06;99057.56;5053854;28;19920;-58
2022/07/19 12:31:01;;;;;;;;;;;;;;;48.22;18.26;99046.66;5052305;28;19916;-58
2022/07/19 12:33:26;;;;;;;;;;;;;;;48.21;17.62;99042.31;5053753;28;20155;-57
2022/07/19 12:35:52;;;;;;;;;;;;;;;45.52;19.90;99046.88;5053220;28;20067;-58
2022/07/19 12:38:25;;;;;;;;;;;;;;;46.28;19.18;99042.16;5053597;28;19966;-57
2022/07/19 12:40:51;;;;;;;;;;;;;;;44.59;21.08;99042.63;5050367;28;19920;-58
2022/07/19 12:43:16;;;;;;;;;;;;;;;46.80;19.14;99048.06;5051995;28;20293;-57